Time,TemperatureF,DewpointF,PressureIn,WindDirection,WindDirectionDegrees,WindSpeedMPH,WindSpeedGustMPH,Humidity,HourlyPrecipIn,Conditions,Clouds,dailyrainin,SolarRadiationWatts/m^2,SoftwareType,DateUTC
2013-07-10 00:33:00,55.0,45.0,-100.00,West,277,0.0,0.0,70,0.00,,,0.00,0.000000,,2013-07-10 07:33:00,
2013-07-10 00:43:00,55.0,45.0,-100.00,West,277,0.0,0.0,70,0.00,,,0.00,0.000000,,2013-07-10 07:43:00,
2013-07-10 00:53:00,55.0,45.0,-100.00,West,277,0.0,0.0,70,0.00,,,0.00,0.000000,,2013-07-10 07:53:00,
2013-07-10 01:22:00,55.0,45.0,-100.00,West,274,0.0,3.0,70,0.00,,,-99.99,0.000000,,2013-07-10 08:22:00,
2013-07-10 01:33:00,55.0,45.0,-100.00,West,274,0.0,3.0,70,0.00,,,-99.99,0.000000,,2013-07-10 08:33:00,
2013-07-10 01:42:00,55.0,45.0,-100.00,West,274,0.0,3.0,70,0.00,,,-99.99,0.000000,,2013-07-10 08:42:00,
2013-07-10 01:53:00,55.0,45.0,-100.00,West,274,0.0,3.0,70,0.00,,,-99.99,0.000000,,2013-07-10 08:53:00,
2013-07-10 02:22:00,53.0,45.0,-100.00,WSW,248,0.0,0.0,75,0.00,,,0.00,0.000000,,2013-07-10 09:22:00,
2013-07-10 02:32:00,53.0,45.0,-100.00,WSW,248,0.0,0.0,75,0.00,,,0.00,0.000000,,2013-07-10 09:32:00,
2013-07-10 02:42:00,53.0,45.0,-100.00,WSW,248,0.0,0.0,75,0.00,,,0.00,0.000000,,2013-07-10 09:42:00,
2013-07-10 02:52:00,53.0,45.0,-100.00,WSW,248,0.0,0.0,75,0.00,,,0.00,0.000000,,2013-07-10 09:52:00,
2013-07-10 02:55:00,-999.0,-99.9,-100.00,West,266,0.0,4.0,-999,-99.99,,,-99.99,0.000000,,2013-07-10 09:55:00,
2013-07-10 03:23:00,50.0,43.0,-100.00,West,266,0.0,4.0,77,0.00,,,0.00,0.000000,,2013-07-10 10:23:00,
2013-07-10 03:32:00,50.0,43.0,-100.00,West,266,0.0,4.0,77,0.00,,,0.00,0.000000,,2013-07-10 10:32:00,
2013-07-10 03:50:00,-999.0,-99.9,-100.00,West,266,0.0,4.0,-999,-99.99,,,-99.99,0.000000,,2013-07-10 10:50:00,
2013-07-10 07:22:00,51.0,45.0,-100.00,WNW,302,0.0,4.0,80,-99.99,,,0.00,61.000000,,2013-07-10 14:22:00,
2013-07-10 07:33:00,51.0,45.0,-100.00,WNW,302,0.0,4.0,80,-99.99,,,0.00,61.000000,,2013-07-10 14:33:00,
2013-07-10 07:43:00,51.0,45.0,-100.00,WNW,302,0.0,4.0,80,-99.99,,,0.00,61.000000,,2013-07-10 14:43:00,
2013-07-10 07:53:00,51.0,45.0,-100.00,WNW,302,0.0,4.0,80,-99.99,,,0.00,61.000000,,2013-07-10 14:53:00,
2013-07-10 08:22:00,59.0,50.0,-100.00,NW,312,0.0,3.0,71,0.00,,,0.00,76.000000,,2013-07-10 15:22:00,
2013-07-10 08:34:00,59.0,50.0,-100.00,NW,312,0.0,3.0,71,0.00,,,0.00,76.000000,,2013-07-10 15:34:00,
2013-07-10 08:42:00,59.0,50.0,-100.00,NW,312,0.0,3.0,71,0.00,,,0.00,76.000000,,2013-07-10 15:42:00,
2013-07-10 08:52:00,59.0,50.0,-100.00,NW,312,0.0,3.0,71,0.00,,,0.00,76.000000,,2013-07-10 15:52:00,
2013-07-10 09:53:00,73.0,42.0,-100.00,NE,42,0.0,3.0,33,0.00,,,0.00,86.000000,,2013-07-10 16:53:00,
2013-07-10 13:52:00,87.0,34.0,-100.00,NW,305,3.0,15.0,15,-99.99,,,0.00,1120.000000,,2013-07-10 20:52:00,
2013-07-10 14:32:00,87.0,35.0,-100.00,NW,319,5.0,15.0,16,-99.99,,,0.00,1138.000000,,2013-07-10 21:32:00,
2013-07-10 14:41:00,87.0,35.0,-100.00,NW,319,5.0,15.0,16,-99.99,,,0.00,1138.000000,,2013-07-10 21:41:00,
2013-07-10 14:52:00,87.0,35.0,-100.00,NW,319,5.0,15.0,16,-99.99,,,0.00,1138.000000,,2013-07-10 21:52:00,
2013-07-10 15:33:00,87.0,37.0,-100.00,NNW,329,3.0,17.0,17,-99.99,,,0.00,1092.000000,,2013-07-10 22:33:00,
2013-07-10 15:42:00,87.0,37.0,-100.00,NNW,329,3.0,17.0,17,-99.99,,,0.00,1092.000000,,2013-07-10 22:42:00,
2013-07-10 15:53:00,87.0,37.0,-100.00,NNW,329,3.0,17.0,17,-99.99,,,0.00,1092.000000,,2013-07-10 22:53:00,
2013-07-10 16:32:00,87.0,41.0,-100.00,West,269,4.0,11.0,20,-99.99,,,0.00,1001.000000,,2013-07-10 23:32:00,
2013-07-10 16:43:00,87.0,41.0,-100.00,West,269,4.0,11.0,20,-99.99,,,0.00,1001.000000,,2013-07-10 23:43:00,
2013-07-10 16:52:00,87.0,41.0,-100.00,West,269,4.0,11.0,20,-99.99,,,0.00,1001.000000,,2013-07-10 23:52:00,
2013-07-10 17:32:00,84.0,45.0,-100.00,South,187,4.0,14.0,26,-99.99,,,0.00,850.000000,,2013-07-11 00:32:00,
2013-07-10 17:42:00,84.0,45.0,-100.00,South,187,4.0,14.0,26,-99.99,,,0.00,850.000000,,2013-07-11 00:42:00,
2013-07-10 17:52:00,84.0,45.0,-100.00,South,187,4.0,14.0,26,-99.99,,,0.00,850.000000,,2013-07-11 00:52:00,
2013-07-10 18:22:00,78.0,43.0,-100.00,WNW,291,4.0,17.0,29,-99.99,,,0.00,662.000000,,2013-07-11 01:22:00,
2013-07-10 18:32:00,78.0,43.0,-100.00,WNW,291,4.0,17.0,29,-99.99,,,0.00,662.000000,,2013-07-11 01:32:00,
2013-07-10 18:43:00,78.0,43.0,-100.00,WNW,291,4.0,17.0,29,-99.99,,,0.00,662.000000,,2013-07-11 01:43:00,
2013-07-10 18:52:00,78.0,43.0,-100.00,WNW,291,4.0,17.0,29,-99.99,,,0.00,662.000000,,2013-07-11 01:52:00,
2013-07-10 19:22:00,73.0,37.0,-100.00,West,273,6.0,18.0,27,0.00,,,0.00,193.000000,,2013-07-11 02:22:00,
2013-07-10 19:32:00,73.0,37.0,-100.00,West,273,6.0,18.0,27,0.00,,,0.00,193.000000,,2013-07-11 02:32:00,
2013-07-10 19:43:00,73.0,37.0,-100.00,West,273,6.0,18.0,27,0.00,,,0.00,193.000000,,2013-07-11 02:43:00,
2013-07-10 19:53:00,73.0,37.0,-100.00,West,273,6.0,18.0,27,0.00,,,0.00,193.000000,,2013-07-11 02:53:00,
2013-07-10 20:21:00,68.0,35.0,-100.00,WNW,282,5.0,19.0,30,0.00,,,0.00,40.000000,,2013-07-11 03:21:00,
2013-07-10 20:33:00,68.0,35.0,-100.00,WNW,282,5.0,19.0,30,0.00,,,0.00,40.000000,,2013-07-11 03:33:00,
2013-07-10 20:42:00,68.0,35.0,-100.00,WNW,282,5.0,19.0,30,0.00,,,0.00,40.000000,,2013-07-11 03:42:00,
2013-07-10 20:52:00,68.0,35.0,-100.00,WNW,282,5.0,19.0,30,0.00,,,0.00,40.000000,,2013-07-11 03:52:00,
2013-07-10 21:22:00,65.0,34.0,-100.00,WNW,285,5.0,15.0,31,0.00,,,0.00,11.000000,,2013-07-11 04:22:00,
2013-07-10 21:32:00,65.0,34.0,-100.00,WNW,285,5.0,15.0,31,0.00,,,0.00,11.000000,,2013-07-11 04:32:00,
2013-07-10 21:42:00,65.0,34.0,-100.00,WNW,285,5.0,15.0,31,0.00,,,0.00,11.000000,,2013-07-11 04:42:00,
2013-07-10 21:53:00,65.0,34.0,-100.00,WNW,285,5.0,15.0,31,0.00,,,0.00,11.000000,,2013-07-11 04:53:00,
2013-07-10 22:22:00,62.0,30.0,-100.00,West,274,3.0,13.0,30,0.00,,,0.00,0.000000,,2013-07-11 05:22:00,
2013-07-10 22:32:00,62.0,30.0,-100.00,West,274,3.0,13.0,30,0.00,,,0.00,0.000000,,2013-07-11 05:32:00,
2013-07-10 22:43:00,62.0,30.0,-100.00,West,274,3.0,13.0,30,0.00,,,0.00,0.000000,,2013-07-11 05:43:00,
2013-07-10 22:52:00,62.0,30.0,-100.00,West,274,3.0,13.0,30,0.00,,,0.00,0.000000,,2013-07-11 05:52:00,
2013-07-10 23:22:00,60.0,28.0,-100.00,SSW,208,0.0,13.0,29,0.00,,,0.00,0.000000,,2013-07-11 06:22:00,
2013-07-10 23:32:00,60.0,28.0,-100.00,SSW,208,0.0,13.0,29,0.00,,,0.00,0.000000,,2013-07-11 06:32:00,
2013-07-10 23:43:00,60.0,28.0,-100.00,SSW,208,0.0,13.0,29,0.00,,,0.00,0.000000,,2013-07-11 06:43:00,
2013-07-10 23:52:00,60.0,28.0,-100.00,SSW,208,0.0,13.0,29,0.00,,,0.00,0.000000,,2013-07-11 06:52:00,